^^
Station Historical Data
 
Daily Summary for September 21, 2017 Units:  Metric    English   Both
« Previous Day
Next Day »
Daily Weekly Monthly Yearly Custom
  Current: High: Low: Average:
Temperature: 27.0 °C 29.9 °C 18.2 °C 23.8 °C
Dew Point: 6.9 °C 12.4 °C 5.9 °C 8.5 °C
Humidity: 28% 51% 23% 39%
Wind Speed: 11.3km/h 17.7km/h 3.2km/h 12.2km/h
Wind Gust: 25.7km/h 40.2km/h - -
WindWSW - - SW
Pressure: 1008.0 hPa 1009.7 hPa 1006.3 hPa -
Precipitation: 0.0 mm      
Historical Graphs
 
 
Tabular Data for September 21, 2017
Time Temperature Dew Point Pressure Wind Wind Speed Wind Gust Humidity Rainfall Rate (Hourly) solar Conditions
00:01 24.3 °C 11.9 °C 1006.3 hPa SW 4.8 km/h 11.3 km/h 46% 0.0 mm 0 W/m2
00:06 24.3 °C 12.0 °C 1006.3 hPa SW 4.8 km/h 11.3 km/h 46% 0.0 mm 0 W/m2
00:11 24.4 °C 12.4 °C 1006.3 hPa SSW 4.8 km/h 9.7 km/h 47% 0.0 mm 0 W/m2
00:16 24.4 °C 12.4 °C 1006.3 hPa South 6.4 km/h 19.3 km/h 47% 0.0 mm 0 W/m2
00:21 24.3 °C 12.0 °C 1006.3 hPa SSW 11.3 km/h 24.1 km/h 46% 0.0 mm 0 W/m2
00:26 24.2 °C 11.8 °C 1006.7 hPa SSW 12.9 km/h 24.1 km/h 46% 0.0 mm 0 W/m2
00:31 24.0 °C 12.0 °C 1006.7 hPa SSW 14.5 km/h 22.5 km/h 47% 0.0 mm 0 W/m2
00:36 23.8 °C 11.5 °C 1006.7 hPa SSW 12.9 km/h 22.5 km/h 46% 0.0 mm 0 W/m2
00:41 23.8 °C 11.1 °C 1006.7 hPa SW 11.3 km/h 19.3 km/h 45% 0.0 mm 0 W/m2
00:46 23.7 °C 11.1 °C 1006.7 hPa SSW 9.7 km/h 16.1 km/h 45% 0.0 mm 0 W/m2
00:51 23.6 °C 11.0 °C 1006.7 hPa SSW 11.3 km/h 19.3 km/h 45% 0.0 mm 0 W/m2
00:56 23.5 °C 10.9 °C 1006.7 hPa SSW 11.3 km/h 19.3 km/h 45% 0.0 mm 0 W/m2
01:01 23.4 °C 10.8 °C 1007.0 hPa SSW 11.3 km/h 16.1 km/h 45% 0.0 mm 0 W/m2
01:06 23.3 °C 10.7 °C 1007.0 hPa SSW 12.9 km/h 19.3 km/h 45% 0.0 mm 0 W/m2
01:11 23.2 °C 10.6 °C 1007.0 hPa SSW 12.9 km/h 19.3 km/h 45% 0.0 mm 0 W/m2
01:16 23.1 °C 10.5 °C 1007.0 hPa SSW 9.7 km/h 14.5 km/h 45% 0.0 mm 0 W/m2
01:21 23.0 °C 10.8 °C 1007.0 hPa SSW 9.7 km/h 14.5 km/h 46% 0.0 mm 0 W/m2
01:26 22.9 °C 10.3 °C 1007.0 hPa SSW 11.3 km/h 19.3 km/h 45% 0.0 mm 0 W/m2
01:31 22.9 °C 10.3 °C 1007.0 hPa SW 12.9 km/h 20.9 km/h 45% 0.0 mm 0 W/m2
01:36 22.9 °C 10.0 °C 1007.0 hPa SW 12.9 km/h 20.9 km/h 44% 0.0 mm 0 W/m2
01:41 23.1 °C 9.8 °C 1007.0 hPa SW 12.9 km/h 24.1 km/h 43% 0.0 mm 0 W/m2
01:46 23.1 °C 9.4 °C 1007.0 hPa SW 12.9 km/h 24.1 km/h 42% 0.0 mm 0 W/m2
01:51 23.1 °C 9.1 °C 1007.3 hPa WSW 11.3 km/h 17.7 km/h 41% 0.0 mm 0 W/m2
01:56 23.1 °C 9.1 °C 1007.3 hPa WSW 11.3 km/h 20.9 km/h 41% 0.0 mm 0 W/m2
02:01 23.1 °C 9.1 °C 1007.3 hPa SW 11.3 km/h 20.9 km/h 41% 0.0 mm 0 W/m2
02:06 23.1 °C 8.7 °C 1007.3 hPa SW 11.3 km/h 17.7 km/h 40% 0.0 mm 0 W/m2
02:11 23.0 °C 8.7 °C 1007.3 hPa SW 11.3 km/h 17.7 km/h 40% 0.0 mm 0 W/m2
02:16 22.8 °C 9.2 °C 1007.3 hPa SSW 11.3 km/h 20.9 km/h 42% 0.0 mm 0 W/m2
02:21 22.4 °C 9.2 °C 1007.3 hPa SSW 11.3 km/h 20.9 km/h 43% 0.0 mm 0 W/m2
02:26 22.2 °C 9.0 °C 1007.3 hPa SSW 12.9 km/h 20.9 km/h 43% 0.0 mm 0 W/m2
02:31 22.0 °C 9.2 °C 1007.3 hPa SSW 12.9 km/h 25.7 km/h 44% 0.0 mm 0 W/m2
02:36 21.9 °C 9.1 °C 1007.3 hPa SSW 12.9 km/h 25.7 km/h 44% 0.0 mm 0 W/m2
02:41 21.7 °C 8.9 °C 1007.3 hPa SSW 14.5 km/h 25.7 km/h 44% 0.0 mm 0 W/m2
02:46 21.6 °C 9.2 °C 1007.3 hPa SSW 16.1 km/h 25.7 km/h 45% 0.0 mm 0 W/m2
02:51 21.4 °C 9.0 °C 1007.3 hPa SSW 16.1 km/h 29.0 km/h 45% 0.0 mm 0 W/m2
02:56 21.3 °C 9.2 °C 1007.3 hPa SSW 17.7 km/h 29.0 km/h 46% 0.0 mm 0 W/m2
03:01 21.2 °C 8.8 °C 1007.7 hPa SSW 17.7 km/h 27.4 km/h 45% 0.0 mm 0 W/m2
03:06 21.2 °C 8.4 °C 1007.7 hPa SSW 16.1 km/h 27.4 km/h 44% 0.0 mm 0 W/m2
03:11 21.1 °C 8.4 °C 1007.7 hPa SSW 12.9 km/h 20.9 km/h 44% 0.0 mm 0 W/m2
03:16 21.1 °C 8.7 °C 1007.7 hPa SSW 12.9 km/h 22.5 km/h 45% 0.0 mm 0 W/m2
03:21 20.8 °C 8.8 °C 1007.7 hPa SSW 14.5 km/h 25.7 km/h 46% 0.0 mm 0 W/m2
03:27 20.6 °C 8.9 °C 1007.7 hPa SSW 16.1 km/h 25.7 km/h 47% 0.0 mm 0 W/m2
03:32 20.5 °C 8.5 °C 1007.7 hPa SSW 16.1 km/h 25.7 km/h 46% 0.0 mm 0 W/m2
03:37 20.4 °C 8.4 °C 1007.7 hPa SSW 14.5 km/h 24.1 km/h 46% 0.0 mm 0 W/m2
03:42 20.4 °C 8.7 °C 1007.7 hPa SSW 12.9 km/h 22.5 km/h 47% 0.0 mm 0 W/m2
03:47 20.4 °C 9.1 °C 1007.7 hPa SSW 14.5 km/h 22.5 km/h 48% 0.0 mm 0 W/m2
03:52 20.4 °C 9.4 °C 1007.7 hPa SSW 14.5 km/h 27.4 km/h 49% 0.0 mm 0 W/m2
03:57 20.5 °C 9.4 °C 1007.7 hPa SSW 14.5 km/h 27.4 km/h 49% 0.0 mm 0 W/m2
04:02 20.4 °C 9.7 °C 1007.7 hPa SSW 14.5 km/h 27.4 km/h 50% 0.0 mm 0 W/m2
04:07 20.4 °C 9.6 °C 1007.7 hPa SSW 12.9 km/h 27.4 km/h 50% 0.0 mm 0 W/m2
04:12 20.4 °C 9.9 °C 1007.7 hPa SSW 12.9 km/h 24.1 km/h 51% 0.0 mm 0 W/m2
04:17 20.4 °C 9.6 °C 1007.7 hPa SSW 14.5 km/h 24.1 km/h 50% 0.0 mm 0 W/m2
04:22 20.3 °C 9.5 °C 1007.7 hPa SSW 12.9 km/h 22.5 km/h 50% 0.0 mm 0 W/m2
04:27 20.3 °C 9.5 °C 1007.7 hPa SSW 12.9 km/h 24.1 km/h 50% 0.0 mm 0 W/m2
04:32 20.2 °C 9.4 °C 1007.7 hPa SSW 14.5 km/h 24.1 km/h 50% 0.0 mm 0 W/m2
04:38 20.1 °C 9.4 °C 1007.7 hPa SSW 16.1 km/h 27.4 km/h 50% 0.0 mm 0 W/m2
04:43 20.1 °C 9.3 °C 1007.7 hPa SSW 16.1 km/h 27.4 km/h 50% 0.0 mm 0 W/m2
04:48 19.9 °C 9.2 °C 1007.7 hPa SSW 14.5 km/h 25.7 km/h 50% 0.0 mm 0 W/m2
04:53 19.8 °C 8.8 °C 1007.7 hPa SSW 14.5 km/h 22.5 km/h 49% 0.0 mm 0 W/m2
04:58 19.8 °C 8.8 °C 1007.7 hPa SSW 12.9 km/h 22.5 km/h 49% 0.0 mm 0 W/m2
05:03 19.8 °C 8.8 °C 1007.7 hPa SSW 12.9 km/h 19.3 km/h 49% 0.0 mm 0 W/m2
05:08 19.7 °C 8.4 °C 1007.7 hPa SSW 11.3 km/h 19.3 km/h 48% 0.0 mm 0 W/m2
05:13 19.7 °C 8.0 °C 1007.7 hPa SSW 9.7 km/h 14.5 km/h 47% 0.0 mm 0 W/m2
05:18 19.7 °C 8.0 °C 1007.7 hPa SSW 9.7 km/h 14.5 km/h 47% 0.0 mm 0 W/m2
05:23 19.6 °C 8.0 °C 1008.0 hPa South 8.0 km/h 14.5 km/h 47% 0.0 mm 0 W/m2
05:28 19.6 °C 7.9 °C 1008.0 hPa SSW 4.8 km/h 11.3 km/h 47% 0.0 mm 0 W/m2
05:33 19.5 °C 7.9 °C 1008.0 hPa SSW 3.2 km/h 6.4 km/h 47% 0.0 mm 0 W/m2
05:38 19.4 °C 7.8 °C 1008.0 hPa SSW 3.2 km/h 9.7 km/h 47% 0.0 mm 0 W/m2
05:43 19.2 °C 8.2 °C 1008.0 hPa West 3.2 km/h 9.7 km/h 49% 0.0 mm 0 W/m2
05:48 18.8 °C 7.9 °C 1008.0 hPa WNW 3.2 km/h 8.0 km/h 49% 0.0 mm 0 W/m2
05:53 18.6 °C 7.7 °C 1008.0 hPa West 3.2 km/h 8.0 km/h 49% 0.0 mm 0 W/m2
05:58 18.4 °C 7.8 °C 1008.0 hPa WSW 3.2 km/h 9.7 km/h 50% 0.0 mm 0 W/m2
06:03 18.2 °C 7.3 °C 1008.0 hPa SW 6.4 km/h 19.3 km/h 49% 0.0 mm 0 W/m2
06:08 18.6 °C 7.3 °C 1008.0 hPa SW 9.7 km/h 19.3 km/h 48% 0.0 mm 0 W/m2
06:13 18.8 °C 7.5 °C 1008.0 hPa SSW 9.7 km/h 17.7 km/h 48% 0.0 mm 0 W/m2
06:18 19.1 °C 7.5 °C 1008.0 hPa SSW 9.7 km/h 17.7 km/h 47% 0.0 mm 0 W/m2
06:19 19.1 °C 7.5 °C 1007.7 hPa SSW 9.7 km/h 17.7 km/h 47% 0.0 mm 0 W/m2
06:23 19.3 °C 7.4 °C 1008.0 hPa SW 12.9 km/h 29.0 km/h 46% 0.0 mm 0 W/m2
06:27 19.4 °C 7.5 °C 1008.0 hPa SW 16.1 km/h 29.0 km/h 46% 0.0 mm 0 W/m2
06:29 19.4 °C 7.5 °C 1008.0 hPa SW 16.1 km/h 29.0 km/h 46% 0.0 mm 0 W/m2
06:34 19.5 °C 8.2 °C 1008.4 hPa SW 16.1 km/h 25.7 km/h 48% 0.0 mm 0 W/m2
06:39 19.4 °C 7.8 °C 1008.0 hPa SW 12.9 km/h 25.7 km/h 47% 0.0 mm 0 W/m2
06:44 19.3 °C 7.7 °C 1008.0 hPa SSW 12.9 km/h 24.1 km/h 47% 0.0 mm 0 W/m2
06:49 19.3 °C 7.7 °C 1008.4 hPa SSW 14.5 km/h 22.5 km/h 47% 0.0 mm 0 W/m2
06:54 19.2 °C 7.6 °C 1008.4 hPa SW 12.9 km/h 22.5 km/h 47% 0.0 mm 0 W/m2
06:59 19.0 °C 7.4 °C 1008.4 hPa SW 12.9 km/h 22.5 km/h 47% 0.0 mm 0 W/m2
07:04 18.9 °C 7.6 °C 1008.4 hPa SW 11.3 km/h 20.9 km/h 48% 0.0 mm 0 W/m2
07:09 18.8 °C 7.5 °C 1008.4 hPa SW 8.0 km/h 19.3 km/h 48% 0.0 mm 0 W/m2
07:14 18.7 °C 7.5 °C 1008.4 hPa SSW 6.4 km/h 16.1 km/h 48% 0.0 mm 0 W/m2
07:19 18.6 °C 7.7 °C 1008.4 hPa SSW 9.7 km/h 17.7 km/h 49% 0.0 mm 0 W/m2
07:24 18.6 °C 7.7 °C 1008.7 hPa SSW 11.3 km/h 29.0 km/h 49% 0.0 mm 0 W/m2
07:29 18.7 °C 7.7 °C 1008.4 hPa SSW 14.5 km/h 29.0 km/h 49% 0.0 mm 0 W/m2
07:34 18.7 °C 7.7 °C 1008.7 hPa SSW 14.5 km/h 25.7 km/h 49% 0.0 mm 0 W/m2
07:39 18.7 °C 7.7 °C 1008.4 hPa SSW 12.9 km/h 25.7 km/h 49% 0.0 mm 0 W/m2
07:44 18.8 °C 7.8 °C 1008.7 hPa SSW 12.9 km/h 20.9 km/h 49% 0.0 mm 0 W/m2
07:49 18.9 °C 8.0 °C 1008.7 hPa SW 12.9 km/h 19.3 km/h 49% 0.0 mm 0 W/m2
07:54 19.1 °C 7.8 °C 1008.7 hPa SW 12.9 km/h 19.3 km/h 48% 0.0 mm 0 W/m2
07:59 19.2 °C 8.2 °C 1008.7 hPa SSW 11.3 km/h 19.3 km/h 49% 0.0 mm 0 W/m2
08:04 19.4 °C 8.4 °C 1009.0 hPa SSW 8.0 km/h 20.9 km/h 49% 0.0 mm 0 W/m2
08:09 19.6 °C 8.3 °C 1009.0 hPa SW 11.3 km/h 25.7 km/h 48% 0.0 mm 0 W/m2
08:14 19.7 °C 8.3 °C 1009.0 hPa SSW 14.5 km/h 25.7 km/h 48% 0.0 mm 0 W/m2
08:24 19.9 °C 8.3 °C 1009.0 hPa SSW 11.3 km/h 19.3 km/h 47% 0.0 mm 0 W/m2
08:29 20.2 °C 8.5 °C 1009.0 hPa South 9.7 km/h 16.1 km/h 47% 0.0 mm 0 W/m2
08:34 20.4 °C 8.7 °C 1009.0 hPa South 6.4 km/h 16.1 km/h 47% 0.0 mm 0 W/m2
08:39 20.7 °C 8.9 °C 1009.0 hPa SSW 3.2 km/h 9.7 km/h 47% 0.0 mm 0 W/m2
08:44 21.1 °C 8.7 °C 1009.0 hPa SW 4.8 km/h 14.5 km/h 45% 0.0 mm 0 W/m2
08:49 21.5 °C 8.7 °C 1009.0 hPa SW 6.4 km/h 14.5 km/h 44% 0.0 mm 0 W/m2
08:54 21.8 °C 9.0 °C 1009.0 hPa SW 6.4 km/h 12.9 km/h 44% 0.0 mm 0 W/m2
08:59 22.2 °C 9.3 °C 1009.0 hPa SW 6.4 km/h 12.9 km/h 44% 0.0 mm 0 W/m2
09:04 22.5 °C 9.3 °C 1009.0 hPa SW 6.4 km/h 17.7 km/h 43% 0.0 mm 0 W/m2
09:09 22.7 °C 9.4 °C 1009.0 hPa WSW 8.0 km/h 17.7 km/h 43% 0.0 mm 0 W/m2
09:14 22.9 °C 9.3 °C 1009.0 hPa WSW 9.7 km/h 17.7 km/h 42% 0.0 mm 0 W/m2
09:19 23.1 °C 9.4 °C 1009.0 hPa SW 9.7 km/h 27.4 km/h 42% 0.0 mm 0 W/m2
09:24 22.9 °C 9.3 °C 1009.0 hPa SSW 14.5 km/h 27.4 km/h 42% 0.0 mm 0 W/m2
09:29 22.8 °C 9.2 °C 1009.0 hPa SSW 16.1 km/h 27.4 km/h 42% 0.0 mm 0 W/m2
09:34 22.9 °C 9.3 °C 1009.4 hPa SSW 17.7 km/h 27.4 km/h 42% 0.0 mm 0 W/m2
09:39 22.9 °C 9.0 °C 1009.4 hPa SW 16.1 km/h 27.4 km/h 41% 0.0 mm 0 W/m2
09:44 23.2 °C 9.2 °C 1009.4 hPa SW 16.1 km/h 25.7 km/h 41% 0.0 mm 0 W/m2
09:49 23.3 °C 9.6 °C 1009.4 hPa SW 16.1 km/h 25.7 km/h 42% 0.0 mm 0 W/m2
09:55 23.3 °C 9.6 °C 1009.4 hPa SSW 17.7 km/h 29.0 km/h 42% 0.0 mm 0 W/m2
10:00 23.5 °C 9.8 °C 1009.4 hPa SSW 14.5 km/h 29.0 km/h 42% 0.0 mm 0 W/m2
10:05 23.8 °C 9.0 °C 1009.4 hPa SW 12.9 km/h 27.4 km/h 39% 0.0 mm 0 W/m2
10:10 24.0 °C 9.6 °C 1009.4 hPa SW 12.9 km/h 27.4 km/h 40% 0.0 mm 0 W/m2
10:15 24.3 °C 9.8 °C 1009.4 hPa WSW 8.0 km/h 16.1 km/h 40% 0.0 mm 0 W/m2
10:20 24.6 °C 9.7 °C 1009.4 hPa WSW 8.0 km/h 16.1 km/h 39% 0.0 mm 0 W/m2
10:30 24.9 °C 9.2 °C 1009.4 hPa West 11.3 km/h 20.9 km/h 37% 0.0 mm 0 W/m2
10:35 25.1 °C 8.6 °C 1009.4 hPa WSW 12.9 km/h 24.1 km/h 35% 0.0 mm 0 W/m2
10:40 25.2 °C 8.7 °C 1009.4 hPa WSW 14.5 km/h 30.6 km/h 35% 0.0 mm 0 W/m2
10:45 25.4 °C 8.0 °C 1009.4 hPa SW 14.5 km/h 30.6 km/h 33% 0.0 mm 0 W/m2
10:50 25.6 °C 8.1 °C 1009.4 hPa WSW 11.3 km/h 27.4 km/h 33% 0.0 mm 0 W/m2
10:55 25.9 °C 8.8 °C 1009.4 hPa WSW 11.3 km/h 24.1 km/h 34% 0.0 mm 0 W/m2
11:00 25.9 °C 8.9 °C 1009.4 hPa West 9.7 km/h 24.1 km/h 34% 0.0 mm 0 W/m2
11:05 26.1 °C 9.0 °C 1009.4 hPa NW 4.8 km/h 19.3 km/h 34% 0.0 mm 0 W/m2
11:10 26.4 °C 8.8 °C 1009.7 hPa WNW 3.2 km/h 14.5 km/h 33% 0.0 mm 0 W/m2
11:15 26.6 °C 8.1 °C 1009.4 hPa WNW 6.4 km/h 14.5 km/h 31% 0.0 mm 0 W/m2
11:20 26.8 °C 8.2 °C 1009.4 hPa WSW 8.0 km/h 17.7 km/h 31% 0.0 mm 0 W/m2
11:25 27.0 °C 8.4 °C 1009.7 hPa WSW 9.7 km/h 19.3 km/h 31% 0.0 mm 0 W/m2
11:30 27.1 °C 8.9 °C 1009.7 hPa WSW 11.3 km/h 25.7 km/h 32% 0.0 mm 0 W/m2
11:35 26.9 °C 8.8 °C 1009.4 hPa West 11.3 km/h 25.7 km/h 32% 0.0 mm 0 W/m2
11:40 26.9 °C 8.4 °C 1009.4 hPa WSW 11.3 km/h 19.3 km/h 31% 0.0 mm 0 W/m2
11:45 26.9 °C 7.9 °C 1009.4 hPa WSW 11.3 km/h 22.5 km/h 30% 0.0 mm 0 W/m2
11:50 27.0 °C 8.4 °C 1009.4 hPa WSW 11.3 km/h 24.1 km/h 31% 0.0 mm 0 W/m2
11:55 27.2 °C 8.1 °C 1009.4 hPa WSW 11.3 km/h 24.1 km/h 30% 0.0 mm 0 W/m2
12:00 27.2 °C 8.1 °C 1009.4 hPa West 11.3 km/h 25.7 km/h 30% 0.0 mm 0 W/m2
12:05 27.1 °C 8.5 °C 1009.4 hPa West 14.5 km/h 29.0 km/h 31% 0.0 mm 0 W/m2
12:10 26.9 °C 8.4 °C 1009.4 hPa WNW 16.1 km/h 29.0 km/h 31% 0.0 mm 0 W/m2
12:15 27.1 °C 8.5 °C 1009.4 hPa WNW 11.3 km/h 27.4 km/h 31% 0.0 mm 0 W/m2
12:20 27.3 °C 8.7 °C 1009.4 hPa West 11.3 km/h 32.2 km/h 31% 0.0 mm 0 W/m2
12:25 27.2 °C 8.6 °C 1009.4 hPa West 16.1 km/h 32.2 km/h 31% 0.0 mm 0 W/m2
12:31 27.3 °C 8.7 °C 1009.4 hPa WNW 17.7 km/h 30.6 km/h 31% 0.0 mm 0 W/m2
12:36 27.4 °C 8.3 °C 1009.4 hPa West 14.5 km/h 30.6 km/h 30% 0.0 mm 0 W/m2
12:41 27.6 °C 8.0 °C 1009.4 hPa West 16.1 km/h 40.2 km/h 29% 0.0 mm 0 W/m2
12:46 27.7 °C 8.1 °C 1009.4 hPa West 14.5 km/h 40.2 km/h 29% 0.0 mm 0 W/m2
12:51 27.9 °C 8.3 °C 1009.0 hPa West 11.3 km/h 22.5 km/h 29% 0.0 mm 0 W/m2
12:56 28.0 °C 8.3 °C 1009.0 hPa West 12.9 km/h 27.4 km/h 29% 0.0 mm 0 W/m2
13:01 28.1 °C 7.9 °C 1009.0 hPa West 16.1 km/h 30.6 km/h 28% 0.0 mm 0 W/m2
13:06 28.2 °C 8.0 °C 1009.0 hPa SW 14.5 km/h 30.6 km/h 28% 0.0 mm 0 W/m2
13:11 28.4 °C 7.6 °C 1009.0 hPa SW 14.5 km/h 29.0 km/h 27% 0.0 mm 0 W/m2
13:16 28.5 °C 8.2 °C 1009.0 hPa WSW 16.1 km/h 30.6 km/h 28% 0.0 mm 0 W/m2
13:21 28.5 °C 7.7 °C 1009.0 hPa West 16.1 km/h 30.6 km/h 27% 0.0 mm 0 W/m2
13:26 28.3 °C 8.0 °C 1009.0 hPa West 17.7 km/h 30.6 km/h 28% 0.0 mm 0 W/m2
13:31 28.4 °C 8.2 °C 1008.7 hPa West 14.5 km/h 30.6 km/h 28% 0.0 mm 0 W/m2
13:36 28.6 °C 7.8 °C 1008.7 hPa WSW 12.9 km/h 30.6 km/h 27% 0.0 mm 0 W/m2
13:41 28.7 °C 8.4 °C 1008.7 hPa SW 16.1 km/h 30.6 km/h 28% 0.0 mm 0 W/m2
13:51 28.8 °C 8.5 °C 1008.4 hPa West 12.9 km/h 24.1 km/h 28% 0.0 mm 0 W/m2
13:52 28.8 °C 8.5 °C 1008.4 hPa West 12.9 km/h 27.4 km/h 28% 0.0 mm 0 W/m2
13:57 28.8 °C 8.5 °C 1008.4 hPa West 14.5 km/h 27.4 km/h 28% 0.0 mm 0 W/m2
14:02 28.9 °C 8.5 °C 1008.4 hPa West 12.9 km/h 29.0 km/h 28% 0.0 mm 0 W/m2
14:07 28.8 °C 8.5 °C 1008.4 hPa West 11.3 km/h 29.0 km/h 28% 0.0 mm 0 W/m2
14:12 28.7 °C 8.4 °C 1008.4 hPa NW 8.0 km/h 19.3 km/h 28% 0.0 mm 0 W/m2
14:17 28.9 °C 8.1 °C 1008.4 hPa West 9.7 km/h 30.6 km/h 27% 0.0 mm 0 W/m2
14:22 29.2 °C 7.7 °C 1008.4 hPa SW 12.9 km/h 30.6 km/h 26% 0.0 mm 0 W/m2
14:27 29.0 °C 8.6 °C 1008.4 hPa WSW 14.5 km/h 25.7 km/h 28% 0.0 mm 0 W/m2
14:32 28.8 °C 8.0 °C 1008.4 hPa WNW 16.1 km/h 32.2 km/h 27% 0.0 mm 0 W/m2
14:37 28.8 °C 8.5 °C 1008.4 hPa WNW 17.7 km/h 32.2 km/h 28% 0.0 mm 0 W/m2
14:42 28.8 °C 8.5 °C 1008.4 hPa WNW 12.9 km/h 22.5 km/h 28% 0.0 mm 0 W/m2
14:47 29.2 °C 8.3 °C 1008.4 hPa West 9.7 km/h 30.6 km/h 27% 0.0 mm 0 W/m2
14:52 29.3 °C 7.8 °C 1008.0 hPa West 11.3 km/h 30.6 km/h 26% 0.0 mm 0 W/m2
14:57 29.1 °C 8.2 °C 1008.4 hPa West 12.9 km/h 30.6 km/h 27% 0.0 mm 0 W/m2
15:02 29.1 °C 7.6 °C 1008.0 hPa WNW 11.3 km/h 27.4 km/h 26% 0.0 mm 0 W/m2
15:07 29.3 °C 8.4 °C 1008.0 hPa West 11.3 km/h 29.0 km/h 27% 0.0 mm 0 W/m2
15:12 29.6 °C 8.6 °C 1008.0 hPa WSW 9.7 km/h 29.0 km/h 27% 0.0 mm 0 W/m2
15:17 29.9 °C 7.2 °C 1008.0 hPa SW 11.3 km/h 35.4 km/h 24% 0.0 mm 0 W/m2
15:22 29.8 °C 7.1 °C 1008.0 hPa SW 17.7 km/h 35.4 km/h 24% 0.0 mm 0 W/m2
15:27 29.8 °C 7.0 °C 1008.0 hPa SW 14.5 km/h 35.4 km/h 24% 0.0 mm 0 W/m2
15:32 29.8 °C 7.1 °C 1008.0 hPa WSW 12.9 km/h 30.6 km/h 24% 0.0 mm 0 W/m2
15:37 29.4 °C 6.7 °C 1008.4 hPa WSW 16.1 km/h 30.6 km/h 24% 0.0 mm 0 W/m2
15:42 29.0 °C 7.0 °C 1008.4 hPa West 14.5 km/h 27.4 km/h 25% 0.0 mm 0 W/m2
15:47 28.9 °C 6.9 °C 1008.4 hPa West 14.5 km/h 27.4 km/h 25% 0.0 mm 0 W/m2
15:52 29.0 °C 7.0 °C 1008.0 hPa WSW 14.5 km/h 27.4 km/h 25% 0.0 mm 0 W/m2
15:58 29.2 °C 5.9 °C 1008.0 hPa WSW 16.1 km/h 29.0 km/h 23% 0.0 mm 0 W/m2
16:03 29.1 °C 6.5 °C 1008.0 hPa SW 17.7 km/h 30.6 km/h 24% 0.0 mm 0 W/m2
16:08 29.1 °C 5.9 °C 1008.0 hPa SW 17.7 km/h 30.6 km/h 23% 0.0 mm 0 W/m2
16:13 29.1 °C 5.9 °C 1008.0 hPa SW 16.1 km/h 29.0 km/h 23% 0.0 mm 0 W/m2
16:18 29.2 °C 6.5 °C 1008.0 hPa SW 16.1 km/h 33.8 km/h 24% 0.0 mm 0 W/m2
16:23 28.9 °C 6.3 °C 1008.0 hPa WSW 17.7 km/h 33.8 km/h 24% 0.0 mm 0 W/m2
16:28 28.7 °C 6.1 °C 1008.0 hPa West 14.5 km/h 25.7 km/h 24% 0.0 mm 0 W/m2
16:33 28.3 °C 6.4 °C 1008.0 hPa WSW 14.5 km/h 37.0 km/h 25% 0.0 mm 0 W/m2
16:38 28.1 °C 6.2 °C 1008.0 hPa WSW 17.7 km/h 37.0 km/h 25% 0.0 mm 0 W/m2
16:43 27.8 °C 6.6 °C 1008.0 hPa WSW 17.7 km/h 32.2 km/h 26% 0.0 mm 0 W/m2
16:48 27.7 °C 6.4 °C 1008.4 hPa WSW 14.5 km/h 32.2 km/h 26% 0.0 mm 0 W/m2
16:53 27.5 °C 6.3 °C 1008.0 hPa West 14.5 km/h 27.4 km/h 26% 0.0 mm 0 W/m2
16:58 27.3 °C 6.1 °C 1008.0 hPa West 14.5 km/h 27.4 km/h 26% 0.0 mm 0 W/m2
17:03 27.1 °C 5.9 °C 1008.0 hPa West 12.9 km/h 25.7 km/h 26% 0.0 mm 0 W/m2
17:08 27.0 °C 6.4 °C 1008.0 hPa West 12.9 km/h 25.7 km/h 27% 0.0 mm 0 W/m2
17:13 27.0 °C 6.9 °C 1008.0 hPa WSW 11.3 km/h 25.7 km/h 28% 0.0 mm 0 W/m2
Asprovalta, Central Macedonia, GREECE
Compliments of Weather Underground - 2 mb